Time;durP1;ratioP1;P1;durP2;ratioP2;P2;SDS_P1;SDS_P2;PMS_P1;PMS_P2;Temp;Humidity;BMP_temperature;BMP_pressure;BME280_temperature;BME280_humidity;BME280_pressure;Samples;Min_cycle;Max_cycle;Signal;HPM_P1;HPM_P2
2023/08/20 00:00:53;;;;;;;30.60;22.60;;;20.70;99.90;;;19.86;100.00;101477.34;4963737;28;20065;-77
2023/08/20 00:03:19;;;;;;;22.65;18.27;;;20.70;99.90;;;19.76;100.00;101527.09;4961970;28;20665;-77
2023/08/20 00:05:45;;;;;;;29.15;20.75;;;20.60;99.90;;;19.67;100.00;101535.75;4963516;28;20037;-77
2023/08/20 00:08:17;;;;;;;27.95;21.20;;;20.60;99.90;;;19.71;100.00;101523.06;4981517;28;20042;-78
2023/08/20 00:10:43;;;;;;;26.17;20.35;;;20.60;99.90;;;19.78;100.00;101511.78;4948545;28;21127;-77
2023/08/20 00:13:08;;;;;;;28.85;21.85;;;20.60;99.90;;;19.83;100.00;101546.22;4962135;28;20117;-77
2023/08/20 00:15:35;;;;;;;30.83;21.48;;;20.60;99.90;;;19.87;100.00;101540.53;4961453;28;20092;-77
2023/08/20 00:18:01;;;;;;;26.88;20.95;;;20.70;99.90;;;19.90;100.00;101541.28;4977868;28;20042;-77
2023/08/20 00:20:34;;;;;;;27.92;21.30;;;20.70;99.90;;;19.94;100.00;101565.00;4981459;28;20039;-76
2023/08/20 00:23:03;;;;;;;22.50;19.67;;;20.70;99.90;;;19.91;100.00;101591.06;4981154;28;20045;-77
2023/08/20 00:25:30;;;;;;;24.92;20.08;;;20.70;99.90;;;19.95;100.00;101588.06;4961461;28;20053;-77
2023/08/20 00:27:55;;;;;;;31.83;20.48;;;20.80;99.90;;;20.00;100.00;101593.97;4946102;28;20034;-80
2023/08/20 00:30:26;;;;;;;44.63;20.60;;;20.70;99.90;;;19.83;100.00;101560.44;4947776;28;20137;-77
2023/08/20 00:32:52;;;;;;;43.08;20.80;;;20.60;99.90;;;19.62;100.00;101527.22;4981873;28;20047;-76
2023/08/20 00:35:18;;;;;;;34.60;20.90;;;20.60;99.90;;;19.60;100.00;101535.34;4961143;28;20031;-75
2023/08/20 00:37:44;;;;;;;42.53;24.75;;;20.50;99.90;;;19.53;100.00;101535.91;4961446;28;20042;-75
2023/08/20 00:40:11;;;;;;;38.33;22.23;;;20.50;99.90;;;19.56;100.00;101543.69;4963454;28;20026;-76
2023/08/20 00:42:41;;;;;;;34.67;22.23;;;20.50;99.90;;;19.52;100.00;101532.34;4959822;28;20041;-76
2023/08/20 00:45:08;;;;;;;32.58;20.08;;;20.40;99.90;;;19.53;100.00;101544.75;4965355;28;20460;-76
2023/08/20 00:47:35;;;;;;;26.80;19.10;;;20.40;99.90;;;19.50;100.00;101536.94;4963390;28;20081;-76
2023/08/20 00:50:08;;;;;;;35.75;22.33;;;20.40;99.90;;;19.52;100.00;101547.53;4959102;28;20637;-75
2023/08/20 00:52:35;;;;;;;39.53;22.75;;;20.40;99.90;;;19.50;100.00;101542.28;4962218;28;20038;-75
2023/08/20 00:55:12;;;;;;;32.15;20.45;;;20.30;99.90;;;19.44;100.00;101535.59;4966879;23;20093;-75
2023/08/20 00:57:39;;;;;;;28.45;18.75;;;20.30;99.90;;;19.36;100.00;101537.94;4994116;28;20090;-75
2023/08/20 01:00:08;;;;;;;25.30;16.75;;;20.30;99.90;;;19.33;100.00;101538.16;4977569;28;20038;-76
2023/08/20 01:02:35;;;;;;;22.75;17.08;;;20.20;99.90;;;19.29;100.00;101541.13;4959939;28;20039;-75
2023/08/20 01:05:06;;;;;;;21.70;15.10;;;20.20;99.90;;;19.25;100.00;101543.19;4994515;28;20023;-76
2023/08/20 01:07:55;;;;;;;25.95;15.50;;;20.20;99.90;;;19.24;100.00;101541.47;4964871;28;20111;-76
2023/08/20 01:10:46;;;;;;;32.65;16.33;;;20.20;99.90;;;19.21;100.00;101552.38;4977654;28;20031;-76
2023/08/20 01:13:12;;;;;;;35.65;18.63;;;20.20;99.90;;;19.26;100.00;101553.78;4962105;28;20035;-76
2023/08/20 01:15:38;;;;;;;35.95;20.25;;;20.20;99.90;;;19.29;100.00;101555.38;4961930;28;20413;-75
2023/08/20 01:18:04;;;;;;;30.17;18.63;;;20.20;99.90;;;19.28;100.00;101556.31;4960760;28;20037;-75
2023/08/20 01:20:36;;;;;;;32.35;19.13;;;20.20;99.90;;;19.31;100.00;101561.44;4944901;28;20489;-76
2023/08/20 01:23:56;;;;;;;28.10;18.25;;;20.20;99.90;;;19.35;100.00;101556.72;4994538;28;20030;-76
2023/08/20 01:26:43;;;;;;;27.73;18.63;;;20.20;99.90;;;19.36;100.00;101545.94;4882906;29;20492;-76
2023/08/20 01:29:11;;;;;;;27.80;17.48;;;20.20;99.90;;;19.33;100.00;101556.88;4882062;29;20112;-76
2023/08/20 01:31:38;;;;;;;31.13;18.42;;;20.20;99.90;;;19.34;100.00;101539.88;4881404;29;20104;-75
2023/08/20 01:34:04;;;;;;;34.05;16.75;;;20.20;99.90;;;19.32;100.00;101527.59;4882628;29;20120;-75
2023/08/20 01:36:30;;;;;;;35.63;16.60;;;20.20;99.90;;;19.27;100.00;101527.91;4881580;29;20638;-75
2023/08/20 01:38:56;;;;;;;40.20;17.23;;;20.20;99.90;;;19.29;100.00;101534.00;4880540;29;20048;-75
2023/08/20 01:41:22;;;;;;;34.15;18.35;;;20.20;99.90;;;19.33;100.00;101538.16;4881935;29;20041;-75
2023/08/20 01:43:48;;;;;;;42.22;17.98;;;20.20;99.90;;;19.34;100.00;101542.53;4882852;29;20036;-75
2023/08/20 01:46:13;;;;;;;44.75;20.60;;;20.20;99.90;;;19.36;100.00;101535.28;4878430;29;20133;-76
2023/08/20 01:48:39;;;;;;;30.00;16.95;;;20.10;99.90;;;19.29;100.00;101541.13;4881872;29;20115;-76
2023/08/20 01:51:05;;;;;;;39.58;18.90;;;20.10;99.90;;;19.27;100.00;101544.78;4882573;29;20445;-75
2023/08/20 01:53:31;;;;;;;43.40;19.58;;;20.20;99.90;;;19.33;100.00;101547.97;4866010;29;20032;-75
2023/08/20 01:55:57;;;;;;;39.95;19.88;;;20.20;99.90;;;19.28;100.00;101550.97;4884009;29;20124;-75
2023/08/20 01:58:23;;;;;;;34.67;17.40;;;20.20;99.90;;;19.32;100.00;101551.63;4880069;29;20095;-75
2023/08/20 02:00:48;;;;;;;34.40;19.45;;;20.10;99.90;;;19.31;100.00;101557.91;4866949;29;20043;-75
2023/08/20 02:03:14;;;;;;;33.33;18.63;;;20.10;99.90;;;19.33;100.00;101556.88;4926124;28;20592;-75
2023/08/20 02:05:40;;;;;;;35.28;19.02;;;20.10;99.90;;;19.32;100.00;101555.13;4978353;28;20029;-76
2023/08/20 02:08:06;;;;;;;30.95;20.08;;;20.20;99.90;;;19.32;100.00;101552.47;4944873;28;20188;-76
2023/08/20 02:10:32;;;;;;;36.15;19.45;;;20.10;99.90;;;19.28;100.00;101553.63;4946780;28;20045;-75
2023/08/20 02:12:58;;;;;;;38.83;20.98;;;20.10;99.90;;;19.27;100.00;101554.63;4966150;28;20086;-76
2023/08/20 02:15:24;;;;;;;36.45;21.15;;;20.10;99.90;;;19.30;100.00;101558.88;4962692;28;20129;-75
2023/08/20 02:17:49;;;;;;;39.35;20.95;;;20.10;99.90;;;19.25;100.00;101557.38;4979287;28;20092;-76
2023/08/20 02:20:18;;;;;;;37.17;20.95;;;20.10;99.90;;;19.21;100.00;101560.38;4961435;28;20054;-75
2023/08/20 02:22:44;;;;;;;42.28;21.52;;;20.10;99.90;;;19.26;100.00;101571.59;4961512;28;20053;-75
2023/08/20 02:25:11;;;;;;;42.80;21.65;;;20.10;99.90;;;19.22;100.00;101567.41;4978334;28;20051;-75
2023/08/20 02:27:36;;;;;;;43.75;23.35;;;20.10;99.90;;;19.21;100.00;101558.56;4960632;28;20066;-75
2023/08/20 02:30:03;;;;;;;45.72;23.50;;;20.10;99.90;;;19.25;100.00;101559.22;4962037;28;20501;-75
2023/08/20 02:32:31;;;;;;;44.17;24.45;;;20.10;99.90;;;19.28;100.00;101558.97;4959047;28;20066;-75
2023/08/20 02:34:57;;;;;;;50.05;26.42;;;20.10;99.90;;;19.27;100.00;101562.63;4974947;28;20417;-75
2023/08/20 02:37:23;;;;;;;59.85;27.95;;;20.10;99.90;;;19.25;100.00;101556.53;4962107;28;20073;-76
2023/08/20 02:39:48;;;;;;;67.63;30.88;;;20.10;99.90;;;19.31;100.00;101566.78;4966419;28;20519;-76
2023/08/20 02:42:14;;;;;;;68.90;33.67;;;20.20;99.90;;;19.37;100.00;101566.38;4978609;28;20034;-75
2023/08/20 02:44:40;;;;;;;81.00;34.45;;;20.20;99.90;;;19.32;100.00;101571.16;4958703;28;20067;-75
2023/08/20 02:47:06;;;;;;;84.50;34.97;;;20.20;99.90;;;19.33;100.00;101572.88;4962111;28;20054;-75
2023/08/20 02:49:34;;;;;;;72.10;33.17;;;20.30;99.90;;;19.34;100.00;101581.75;4958194;28;20046;-75
2023/08/20 02:52:00;;;;;;;70.72;31.35;;;20.20;99.90;;;19.36;100.00;101585.16;4962644;28;20426;-76
2023/08/20 02:54:26;;;;;;;89.68;37.30;;;20.30;99.90;;;19.39;100.00;101591.13;4961249;28;20065;-75
2023/08/20 02:56:52;;;;;;;92.35;38.28;;;20.30;99.90;;;19.44;100.00;101581.00;4977773;28;20391;-75
2023/08/20 02:59:17;;;;;;;137.02;42.30;;;20.30;99.90;;;19.51;100.00;101589.41;4976902;28;20110;-76
2023/08/20 03:01:43;;;;;;;158.40;46.95;;;20.40;99.90;;;19.52;100.00;101592.94;4978329;28;20038;-76
2023/08/20 03:04:10;;;;;;;137.20;44.35;;;20.30;99.90;;;19.52;100.00;101587.59;4959889;28;20110;-75
2023/08/20 03:06:38;;;;;;;252.95;56.00;;;20.40;99.90;;;19.56;100.00;101597.94;4979497;28;20559;-75
2023/08/20 03:09:06;;;;;;;82.05;34.22;;;20.40;99.90;;;19.63;100.00;101604.59;4977318;28;20051;-76
2023/08/20 03:11:32;;;;;;;244.48;56.65;;;20.40;99.90;;;19.71;100.00;101605.88;4959227;28;20039;-76
2023/08/20 03:13:57;;;;;;;72.47;33.90;;;20.50;99.90;;;19.77;100.00;101611.63;4978246;28;20080;-76
2023/08/20 03:16:23;;;;;;;87.88;39.70;;;20.50;99.90;;;19.84;100.00;101612.91;4962812;28;20147;-75
2023/08/20 03:18:49;;;;;;;109.90;41.60;;;20.60;99.90;;;19.87;100.00;101612.69;4963593;28;20646;-76
2023/08/20 03:21:15;;;;;;;97.40;40.97;;;20.60;99.90;;;19.95;100.00;101617.47;4944331;28;20117;-75
2023/08/20 03:23:40;;;;;;;72.72;34.50;;;20.70;99.90;;;20.01;100.00;101627.72;4962201;28;20034;-76
2023/08/20 03:26:06;;;;;;;78.53;34.17;;;20.70;99.90;;;20.06;100.00;101630.06;4961711;28;20035;-76
2023/08/20 03:28:32;;;;;;;88.18;37.97;;;20.80;99.90;;;20.10;100.00;101628.03;4960105;28;20038;-76
2023/08/20 03:31:01;;;;;;;119.38;43.38;;;20.80;99.90;;;20.13;100.00;101631.34;4978395;28;20114;-76
2023/08/20 03:33:27;;;;;;;89.68;36.28;;;20.80;99.90;;;20.16;100.00;101638.28;4990043;28;20065;-75
2023/08/20 03:35:53;;;;;;;80.90;37.10;;;20.90;99.90;;;20.20;100.00;101634.44;4974866;28;20022;-75
2023/08/20 03:38:19;;;;;;;93.50;37.38;;;20.90;99.90;;;20.23;100.00;101636.84;4979343;28;20086;-75
2023/08/20 03:40:47;;;;;;;89.00;38.72;;;20.90;99.90;;;20.25;100.00;101637.59;4959785;28;20062;-75
2023/08/20 03:43:13;;;;;;;134.63;43.20;;;21.00;99.90;;;20.26;100.00;101640.19;4962231;28;20022;-76
2023/08/20 03:45:38;;;;;;;123.95;42.95;;;21.00;99.90;;;20.28;100.00;101643.59;4976110;28;20109;-76
2023/08/20 03:48:04;;;;;;;148.30;46.03;;;21.00;99.90;;;20.29;100.00;101647.13;4992927;28;20062;-75
2023/08/20 03:50:30;;;;;;;149.52;46.03;;;21.00;99.90;;;20.29;100.00;101649.78;4960401;28;20030;-76
2023/08/20 03:52:56;;;;;;;183.93;48.40;;;21.00;99.90;;;20.28;100.00;101646.28;4959225;28;20121;-76
2023/08/20 03:55:21;;;;;;;126.65;45.28;;;21.00;99.90;;;20.27;100.00;101649.91;4962051;28;20070;-76
2023/08/20 03:57:47;;;;;;;408.75;65.30;;;21.00;99.90;;;20.28;100.00;101643.59;4961677;28;20122;-76
2023/08/20 04:00:16;;;;;;;171.90;50.50;;;21.00;99.90;;;20.29;100.00;101650.63;4958627;28;20112;-76
2023/08/20 04:02:42;;;;;;;83.03;39.50;;;21.00;99.90;;;20.31;100.00;101645.19;4943814;28;20061;-76
2023/08/20 04:05:08;;;;;;;167.32;48.33;;;21.00;99.90;;;20.31;100.00;101645.19;4979913;28;20026;-76
2023/08/20 04:07:34;;;;;;;204.43;49.92;;;21.00;99.90;;;20.32;100.00;101654.06;4994950;28;20058;-76
2023/08/20 04:09:59;;;;;;;135.85;42.50;;;21.00;99.90;;;20.31;100.00;101649.69;4967609;28;20460;-76
2023/08/20 04:12:25;;;;;;;88.97;40.33;;;21.00;99.90;;;20.31;100.00;101657.72;4946915;28;20046;-76
2023/08/20 04:14:51;;;;;;;104.95;40.22;;;21.00;99.90;;;20.31;100.00;101653.22;4962203;28;20058;-75
2023/08/20 04:17:19;;;;;;;195.35;49.58;;;21.00;99.90;;;20.32;100.00;101657.56;4978343;28;20405;-76
2023/08/20 04:19:45;;;;;;;156.88;46.15;;;21.00;99.90;;;20.33;100.00;101658.44;4963849;28;20039;-76
2023/08/20 04:22:11;;;;;;;183.57;46.50;;;21.00;99.90;;;20.30;100.00;101656.84;4980747;28;20034;-76
2023/08/20 04:24:38;;;;;;;94.38;34.50;;;21.00;99.90;;;20.28;100.00;101659.63;4961842;28;20039;-76
2023/08/20 04:27:04;;;;;;;132.43;41.45;;;21.00;99.90;;;20.28;100.00;101659.63;4963666;28;20054;-76
2023/08/20 04:29:30;;;;;;;153.85;39.13;;;21.00;99.90;;;20.27;100.00;101665.09;4947135;28;20706;-76
2023/08/20 04:32:01;;;;;;;94.82;36.65;;;21.00;99.90;;;20.28;100.00;101661.47;4979357;28;20038;-76
2023/08/20 04:34:27;;;;;;;98.05;38.30;;;21.00;99.90;;;20.30;100.00;101662.19;4994094;28;20657;-76
2023/08/20 04:36:52;;;;;;;376.52;60.78;;;21.00;99.90;;;20.31;100.00;101661.22;4963364;28;20134;-76
2023/08/20 04:39:18;;;;;;;80.68;36.05;;;21.00;99.90;;;20.34;100.00;101661.00;4982057;28;20498;-76
2023/08/20 04:41:44;;;;;;;268.80;47.13;;;21.10;99.90;;;20.35;100.00;101664.53;4964043;28;20161;-76
2023/08/20 04:44:10;;;;;;;112.65;37.53;;;21.00;99.90;;;20.32;100.00;101664.75;4962642;28;20030;-76
2023/08/20 04:46:38;;;;;;;120.40;40.13;;;21.00;99.90;;;20.32;100.00;101670.94;4961394;28;20561;-76
2023/08/20 04:49:04;;;;;;;142.75;38.88;;;21.00;99.90;;;20.35;100.00;101676.09;4962661;28;20030;-76
2023/08/20 04:51:30;;;;;;;76.20;34.08;;;21.10;99.90;;;20.38;100.00;101685.72;4962861;28;20117;-76
2023/08/20 04:53:55;;;;;;;92.47;35.88;;;21.10;99.90;;;20.39;100.00;101679.38;4963363;28;20117;-76
2023/08/20 04:56:21;;;;;;;125.97;39.05;;;21.10;99.90;;;20.39;100.00;101684.72;4946358;28;20196;-76
2023/08/20 04:58:47;;;;;;;106.47;36.67;;;21.10;99.90;;;20.41;100.00;101688.16;4978101;28;20117;-76
2023/08/20 05:01:12;;;;;;;115.40;37.55;;;21.10;99.90;;;20.41;100.00;101690.81;4962113;28;20121;-76
2023/08/20 05:03:38;;;;;;;146.05;41.90;;;21.10;99.90;;;20.40;100.00;101689.97;4977715;28;20108;-76
2023/08/20 05:06:04;;;;;;;76.15;37.60;;;21.10;99.90;;;20.40;100.00;101691.81;4976386;28;20105;-76
2023/08/20 05:08:30;;;;;;;79.22;35.25;;;21.10;99.90;;;20.42;100.00;101692.53;4978412;28;20030;-76
2023/08/20 05:10:56;;;;;;;86.15;39.40;;;21.10;99.90;;;20.46;100.00;101688.69;4978777;28;20049;-76
2023/08/20 05:13:21;;;;;;;79.03;36.83;;;21.20;99.90;;;20.51;100.00;101693.69;4963180;28;20118;-76
2023/08/20 05:15:47;;;;;;;61.20;32.25;;;21.20;99.90;;;20.53;100.00;101692.59;4960399;28;20030;-76
2023/08/20 05:18:13;;;;;;;94.07;37.92;;;21.20;99.90;;;20.57;100.00;101680.75;4959943;28;20665;-76
2023/08/20 05:20:40;;;;;;;182.25;47.17;;;21.20;99.90;;;20.61;100.00;101682.22;4978338;28;20105;-76
2023/08/20 05:23:06;;;;;;;89.65;37.35;;;21.30;99.90;;;20.65;100.00;101678.38;4962185;28;20019;-76
2023/08/20 05:25:32;;;;;;;202.57;49.33;;;21.30;99.90;;;20.71;100.00;101682.38;4962134;28;20030;-76
2023/08/20 05:28:01;;;;;;;176.57;43.47;;;21.40;99.90;;;20.73;100.00;101679.59;4963279;28;20037;-76
2023/08/20 05:30:27;;;;;;;86.05;36.53;;;21.40;99.90;;;20.72;100.00;101689.47;4994995;28;20042;-76
2023/08/20 05:32:52;;;;;;;123.45;40.78;;;21.40;99.90;;;20.69;100.00;101689.66;4962454;28;20033;-76
2023/08/20 05:35:18;;;;;;;188.70;43.35;;;21.40;99.90;;;20.71;100.00;101692.25;4961311;28;20113;-76
2023/08/20 05:37:44;;;;;;;55.72;31.38;;;21.40;99.90;;;20.73;100.00;101688.47;4963066;28;20054;-76
2023/08/20 05:40:10;;;;;;;108.97;39.15;;;21.40;99.90;;;20.78;100.00;101690.84;4962146;28;20550;-76
2023/08/20 05:42:36;;;;;;;178.48;47.63;;;21.40;99.90;;;20.81;100.00;101690.59;4966749;28;20625;-76
2023/08/20 05:45:02;;;;;;;164.38;44.50;;;21.50;99.90;;;20.80;100.00;101680.84;4962297;28;20146;-76
2023/08/20 05:47:28;;;;;;;84.40;36.70;;;21.50;99.90;;;20.77;100.00;101689.13;4958942;28;20046;-76
2023/08/20 05:49:54;;;;;;;92.70;36.70;;;21.50;99.90;;;20.76;100.00;101685.59;4960972;28;20030;-76
2023/08/20 05:52:19;;;;;;;49.10;27.88;;;21.50;99.90;;;20.76;100.00;101684.75;4946429;28;20058;-76
2023/08/20 05:54:45;;;;;;;53.80;29.48;;;21.50;99.90;;;20.75;100.00;101683.03;4960438;28;20113;-76
2023/08/20 05:57:11;;;;;;;50.03;29.67;;;21.40;99.90;;;20.74;100.00;101681.34;4962413;28;20041;-76
2023/08/20 05:59:37;;;;;;;89.80;37.17;;;21.40;99.90;;;20.76;100.00;101676.72;4977146;28;20037;-76
2023/08/20 06:02:03;;;;;;;65.35;33.40;;;21.50;99.90;;;20.83;100.00;101680.63;4993355;28;20113;-76
2023/08/20 06:04:29;;;;;;;78.68;33.92;;;21.50;99.90;;;20.81;100.00;101679.88;4994796;28;20410;-76
2023/08/20 06:06:55;;;;;;;76.68;34.13;;;21.50;99.90;;;20.74;100.00;101679.50;4979203;23;20050;-75
2023/08/20 06:09:21;;;;;;;63.38;32.20;;;21.40;99.90;;;20.67;100.00;101684.47;4949662;28;20518;-75
2023/08/20 06:11:47;;;;;;;57.00;31.55;;;21.40;99.90;;;20.69;100.00;101690.56;4949822;28;20121;-75
2023/08/20 06:14:12;;;;;;;52.65;29.77;;;21.50;99.90;;;20.77;100.00;101710.53;4959031;28;20055;-75
2023/08/20 06:16:38;;;;;;;77.25;34.92;;;21.50;99.90;;;20.80;100.00;101707.59;4958885;28;20110;-75
2023/08/20 06:19:04;;;;;;;62.60;33.25;;;21.50;99.90;;;20.78;100.00;101706.91;4940994;28;20122;-76
2023/08/20 06:21:29;;;;;;;72.97;36.03;;;21.50;99.90;;;20.81;100.00;101706.66;4943203;28;20038;-76
2023/08/20 06:23:58;;;;;;;63.58;32.58;;;21.50;99.90;;;20.79;100.00;101713.94;4925580;28;20117;-76
2023/08/20 06:26:24;;;;;;;55.92;31.02;;;21.50;99.90;;;20.76;100.00;101717.72;4959382;28;20023;-75
2023/08/20 06:28:50;;;;;;;56.13;30.50;;;21.50;99.90;;;20.78;100.00;101720.28;4959374;28;20165;-76
2023/08/20 06:31:15;;;;;;;58.85;31.48;;;21.50;99.90;;;20.71;100.00;101724.34;4927841;28;20024;-75
2023/08/20 06:33:41;;;;;;;53.13;31.60;;;21.50;99.90;;;20.77;100.00;101723.91;4941570;28;20039;-76
2023/08/20 06:36:07;;;;;;;61.85;34.05;;;21.50;99.90;;;20.76;100.00;101725.75;4940699;28;20031;-75
2023/08/20 06:38:33;;;;;;;60.15;32.13;;;21.50;99.90;;;20.78;100.00;101728.31;4941851;28;20137;-75
2023/08/20 06:40:59;;;;;;;52.78;29.90;;;21.50;99.90;;;20.69;100.00;101724.47;4974974;28;20051;-75
2023/08/20 06:43:24;;;;;;;67.85;33.58;;;21.50;99.90;;;20.77;100.00;101723.91;4943112;28;20067;-75
2023/08/20 06:45:52;;;;;;;54.15;31.95;;;21.50;99.90;;;20.78;100.00;101728.31;4941964;28;20114;-75
2023/08/20 06:48:19;;;;;;;55.67;31.60;;;21.50;99.90;;;20.77;100.00;101731.94;4940962;28;20680;-75
2023/08/20 06:50:45;;;;;;;64.53;34.13;;;21.50;99.90;;;20.78;100.00;101726.47;4943416;28;20114;-75
2023/08/20 06:53:11;;;;;;;55.47;32.72;;;21.60;99.90;;;20.92;100.00;101727.28;4940230;28;20667;-75
2023/08/20 06:55:37;;;;;;;55.15;33.03;;;21.60;99.90;;;21.01;100.00;101735.44;4942272;28;20071;-75
2023/08/20 06:58:03;;;;;;;52.97;30.05;;;21.80;99.90;;;21.18;100.00;101744.91;4925677;28;20114;-75
2023/08/20 07:00:28;;;;;;;53.10;29.92;;;21.80;99.90;;;21.20;100.00;101742.13;4962144;28;20027;-75
2023/08/20 07:02:54;;;;;;;56.92;31.63;;;21.90;99.90;;;21.24;100.00;101746.28;4941151;28;20074;-75
2023/08/20 07:05:20;;;;;;;54.15;28.52;;;22.00;99.90;;;21.38;100.00;101748.78;4942458;28;20035;-75
2023/08/20 07:07:46;;;;;;;47.05;26.80;;;22.00;99.90;;;21.46;100.00;101748.19;4942318;28;20490;-75
2023/08/20 07:10:12;;;;;;;47.53;25.80;;;22.10;99.90;;;21.61;100.00;101751.53;4941628;28;20038;-75
2023/08/20 07:12:38;;;;;;;41.90;23.73;;;22.20;99.90;;;21.65;100.00;101748.50;4973934;28;20035;-75
2023/08/20 07:15:06;;;;;;;48.35;24.15;;;22.30;99.90;;;21.74;100.00;101752.28;4943808;28;20028;-75
2023/08/20 07:17:31;;;;;;;40.95;22.65;;;22.30;99.90;;;21.75;100.00;101748.66;4940063;28;20433;-75
2023/08/20 07:19:57;;;;;;;35.00;19.52;;;22.40;99.90;;;21.82;100.00;101754.38;4956549;28;20023;-75
2023/08/20 07:22:25;;;;;;;36.80;19.55;;;22.40;99.90;;;21.76;100.00;101758.38;4943073;28;21215;-75
2023/08/20 07:24:51;;;;;;;31.60;18.30;;;22.40;99.90;;;21.71;100.00;101753.38;4943386;28;20059;-75
2023/08/20 07:27:17;;;;;;;29.60;16.73;;;22.40;99.90;;;21.64;100.00;101751.28;4941608;28;20114;-75
2023/08/20 07:29:42;;;;;;;36.03;18.13;;;22.30;99.90;;;21.64;100.00;101745.94;4940194;28;20121;-75
2023/08/20 07:32:08;;;;;;;38.63;18.13;;;22.30;99.90;;;21.65;100.00;101753.84;4957607;28;20122;-75
2023/08/20 07:34:34;;;;;;;40.22;20.40;;;22.30;99.90;;;21.66;100.00;101750.22;4956454;28;20670;-75
2023/08/20 07:37:01;;;;;;;46.17;20.55;;;;;;;21.59;100.00;101746.28;4942574;28;20031;-75
2023/08/20 07:39:27;;;;;;;50.28;22.75;;;22.30;99.90;;;21.49;100.00;101748.84;4943762;28;20069;-75
2023/08/20 07:41:53;;;;;;;48.88;23.08;;;22.20;99.90;;;21.50;100.00;101755.03;4927860;28;20133;-75
2023/08/20 07:44:18;;;;;;;44.08;21.58;;;22.20;99.90;;;21.49;100.00;101748.00;4945830;28;20042;-75
2023/08/20 07:46:44;;;;;;;56.10;25.42;;;22.20;99.90;;;21.49;100.00;101746.16;4949341;28;20054;-75
2023/08/20 07:49:10;;;;;;;56.83;24.08;;;22.20;99.90;;;21.54;100.00;101748.47;4944651;28;20150;-75
2023/08/20 07:51:35;;;;;;;43.53;21.92;;;22.20;99.90;;;21.57;100.00;101753.59;4977761;28;20054;-75
2023/08/20 07:54:01;;;;;;;35.78;18.60;;;22.20;99.90;;;21.65;100.00;101759.22;4962419;28;20069;-75
2023/08/20 07:56:27;;;;;;;40.25;18.17;;;22.30;99.90;;;21.79;100.00;101762.66;4944297;28;20113;-75
2023/08/20 07:58:56;;;;;;;28.05;16.52;;;22.40;99.90;;;21.78;100.00;101764.47;4945568;28;20540;-76
2023/08/20 08:01:22;;;;;;;44.25;20.23;;;22.50;99.90;;;21.80;100.00;101767.06;4946545;28;20038;-75
2023/08/20 08:03:48;;;;;;;39.95;18.95;;;22.40;99.90;;;21.76;100.00;101761.06;4961077;28;20031;-75
2023/08/20 08:06:13;;;;;;;38.00;17.92;;;22.50;99.90;;;21.85;100.00;101754.97;4944564;28;20038;-75
2023/08/20 08:08:44;;;;;;;37.03;18.60;;;22.50;99.90;;;22.06;100.00;101763.16;4944931;28;20047;-75
2023/08/20 08:11:10;;;;;;;31.48;17.15;;;22.70;99.90;;;22.25;100.00;101767.97;4944101;28;20050;-75
2023/08/20 08:13:35;;;;;;;31.50;16.63;;;22.80;99.90;;;22.35;100.00;101757.34;4945760;28;20039;-75
2023/08/20 08:16:02;;;;;;;26.55;14.00;;;22.90;99.90;;;22.40;100.00;101754.31;4941246;28;20122;-75
2023/08/20 08:18:27;;;;;;;39.80;14.23;;;23.00;99.90;;;22.50;100.00;101748.06;4942662;28;20560;-75
2023/08/20 08:20:53;;;;;;;21.67;11.55;;;23.10;99.90;;;22.57;100.00;101744.88;4943757;28;20129;-75
2023/08/20 08:23:19;;;;;;;17.20;10.50;;;23.10;99.90;;;22.73;100.00;101750.69;4940247;28;20031;-76
2023/08/20 08:25:45;;;;;;;23.30;12.27;;;23.20;99.90;;;22.94;100.00;101756.16;4977604;28;20106;-76
2023/08/20 08:28:11;;;;;;;18.27;10.68;;;23.40;99.90;;;23.11;100.00;101763.69;4942994;28;20117;-76
2023/08/20 08:30:40;;;;;;;19.98;10.68;;;23.70;99.90;;;23.41;100.00;101762.09;4945672;28;20033;-76
2023/08/20 08:33:06;;;;;;;14.95;8.90;;;23.80;99.90;;;23.50;100.00;101761.28;4959941;28;20115;-75
2023/08/20 08:35:32;;;;;;;13.38;7.93;;;24.00;99.90;;;23.58;97.21;101765.16;4977734;28;20046;-75
2023/08/20 08:37:58;;;;;;;16.98;8.18;;;24.00;99.90;;;23.60;96.09;101765.88;4960675;28;20066;-76
2023/08/20 08:40:29;;;;;;;18.48;10.05;;;24.10;99.90;;;23.50;95.78;101752.38;4927331;28;20469;-76
2023/08/20 08:42:55;;;;;;;20.88;11.38;;;23.90;99.90;;;23.20;95.47;101755.84;4944496;28;20078;-76
2023/08/20 08:45:21;;;;;;;18.10;11.23;;;23.80;99.90;;;23.06;95.93;101748.91;4942821;28;20030;-75
2023/08/20 08:47:49;;;;;;;17.38;10.63;;;23.70;99.90;;;22.89;97.53;101748.47;4930432;28;20069;-76
2023/08/20 08:50:15;;;;;;;18.90;11.73;;;23.60;99.90;;;22.82;99.31;101754.47;4943583;28;20039;-76
2023/08/20 08:52:42;;;;;;;23.15;13.13;;;23.50;99.90;;;22.69;99.28;101751.94;4944257;28;20027;-76
2023/08/20 08:55:08;;;;;;;20.55;12.30;;;23.40;99.90;;;22.60;99.36;101758.06;4943194;28;20031;-76
2023/08/20 08:57:38;;;;;;;22.02;12.77;;;23.30;99.90;;;22.63;99.55;101752.44;4943673;28;20286;-76
2023/08/20 09:00:06;;;;;;;24.55;13.07;;;23.30;99.90;;;22.61;100.00;101757.91;4943680;28;20045;-76
2023/08/20 09:02:38;;;;;;;26.13;14.48;;;23.20;99.90;;;22.41;100.00;101761.38;4928157;28;20126;-76
2023/08/20 09:05:06;;;;;;;26.08;15.50;;;23.10;99.90;;;22.15;100.00;101764.28;4927504;28;20063;-76
2023/08/20 09:07:32;;;;;;;28.58;14.60;;;22.90;99.90;;;22.01;100.00;101775.22;4927845;28;20410;-75
2023/08/20 09:10:00;;;;;;;26.48;14.57;;;22.80;99.90;;;21.88;100.00;101770.00;4925623;28;20051;-76
2023/08/20 09:12:26;;;;;;;24.80;13.73;;;22.70;99.90;;;21.90;100.00;101776.94;4943794;28;20107;-76
2023/08/20 09:15:00;;;;;;;29.80;16.30;;;22.70;99.90;;;21.91;100.00;101794.72;4943286;28;20072;-76
2023/08/20 09:17:29;;;;;;;27.48;13.73;;;22.60;99.90;;;21.81;100.00;101796.41;4943157;28;20066;-76
2023/08/20 09:20:02;;;;;;;19.45;11.95;;;22.50;99.90;;;21.68;100.00;101806.34;4939371;28;20027;-76
2023/08/20 09:22:28;;;;;;;19.00;11.80;;;22.40;99.90;;;21.52;100.00;101800.47;4943322;28;20451;-76
2023/08/20 09:25:01;;;;;;;26.05;13.07;;;22.20;99.90;;;21.29;100.00;101803.03;4943597;28;20053;-76
2023/08/20 09:27:29;;;;;;;24.42;14.57;;;22.10;99.90;;;21.26;100.00;101801.44;4943559;28;20046;-76
2023/08/20 09:29:59;;;;;;;24.15;12.82;;;22.10;99.90;;;21.30;100.00;101796.72;4960052;28;20101;-75
2023/08/20 09:32:27;;;;;;;23.33;13.00;;;22.20;99.90;;;21.44;100.00;101798.38;4942655;28;20062;-76
2023/08/20 09:34:58;;;;;;;23.08;13.35;;;22.20;99.90;;;21.48;100.00;101805.22;4944007;28;20414;-76
2023/08/20 09:37:30;;;;;;;19.48;12.00;;;22.20;99.90;;;21.64;100.00;101795.03;4942805;28;20031;-77
2023/08/20 09:39:59;;;;;;;16.15;10.57;;;22.40;99.90;;;21.99;100.00;101793.28;4973038;28;20561;-76
2023/08/20 09:42:33;;;;;;;17.45;10.30;;;22.60;99.90;;;22.36;100.00;101795.78;4942264;28;20051;-75
2023/08/20 09:45:04;;;;;;;19.77;9.43;;;22.90;99.90;;;22.56;98.10;101792.34;4926612;28;20038;-76
2023/08/20 09:47:35;;;;;;;15.15;8.85;;;23.20;99.90;;;22.97;95.78;101796.16;4942239;28;20110;-76
2023/08/20 09:50:10;;;;;;;15.70;8.68;;;23.40;99.90;;;23.14;92.82;101802.88;4942116;28;20192;-76
2023/08/20 09:52:46;;;;;;;15.05;8.85;;;23.60;99.90;;;23.18;92.64;101808.84;4941385;28;20046;-76